Time;durP1;ratioP1;P1;durP2;ratioP2;P2;SDS_P1;SDS_P2;PMS_P1;PMS_P2;Temp;Humidity;BMP_temperature;BMP_pressure;BME280_temperature;BME280_humidity;BME280_pressure;Samples;Min_cycle;Max_cycle;Signal;HPM_P1;HPM_P2
2023/07/04 00:00:23;;;;;;;12.40;4.38;;;;;;;15.68;71.78;100931.16;5059823;28;20028;-71
2023/07/04 00:02:52;;;;;;;12.50;3.88;;;;;;;15.67;71.84;100933.00;5061048;28;20028;-74
2023/07/04 00:05:18;;;;;;;11.13;3.75;;;;;;;15.70;71.58;100926.53;5062242;28;20035;-72
2023/07/04 00:07:43;;;;;;;11.82;4.13;;;;;;;15.64;72.34;100929.63;5060452;28;20028;-71
2023/07/04 00:10:09;;;;;;;13.93;3.67;;;;;;;15.57;72.70;100922.97;5061109;28;20035;-72
2023/07/04 00:12:34;;;;;;;12.35;3.83;;;;;;;15.56;72.82;100919.44;5058678;28;20103;-73
2023/07/04 00:14:59;;;;;;;10.60;3.80;;;;;;;15.57;73.08;100920.28;5049762;28;20017;-73
2023/07/04 00:17:26;;;;;;;13.68;3.83;;;;;;;15.58;73.14;100916.63;5056143;28;20101;-73
2023/07/04 00:19:52;;;;;;;12.55;4.53;;;;;;;15.55;73.47;100916.84;5061458;28;20043;-70
2023/07/04 00:22:18;;;;;;;13.30;4.45;;;;;;;15.49;73.99;100912.78;5054267;28;20064;-73
2023/07/04 00:24:44;;;;;;;15.82;4.80;;;;;;;15.41;74.86;100918.66;5056688;28;20084;-73
2023/07/04 00:27:12;;;;;;;14.23;4.43;;;;;;;15.32;75.03;100916.63;5049692;28;20036;-72
2023/07/04 00:29:38;;;;;;;17.25;4.60;;;;;;;15.31;75.31;100916.75;5056833;28;20033;-72
2023/07/04 00:32:07;;;;;;;13.70;3.92;;;;;;;15.23;75.95;100911.06;5054033;28;20025;-70
2023/07/04 00:34:34;;;;;;;12.65;4.50;;;;;;;15.23;76.20;100917.28;5053054;28;20033;-72
2023/07/04 00:36:59;;;;;;;13.55;4.50;;;;;;;15.17;76.51;100910.53;5054032;28;20038;-72
2023/07/04 00:39:26;;;;;;;13.63;4.18;;;;;;;15.21;76.52;100919.19;5053952;28;20474;-71
2023/07/04 00:41:51;;;;;;;15.23;4.88;;;;;;;15.15;77.00;100920.50;5045918;28;20029;-73
2023/07/04 00:44:22;;;;;;;15.20;4.60;;;;;;;15.12;77.21;100918.00;5048012;28;20043;-71
2023/07/04 00:47:11;;;;;;;12.52;4.70;;;;;;;15.14;76.62;100924.13;5054834;28;20024;-72
2023/07/04 00:49:44;;;;;;;10.82;4.25;;;;;;;15.15;77.53;100925.00;5058319;28;20098;-72
2023/07/04 00:52:32;;;;;;;12.40;4.22;;;;;;;15.16;76.96;100922.19;5060290;28;20039;-71
2023/07/04 00:55:01;;;;;;;14.35;4.90;;;;;;;15.16;77.59;100918.66;5052210;28;20255;-73
2023/07/04 00:57:32;;;;;;;13.23;4.57;;;;;;;15.20;77.88;100906.75;5048041;28;20020;-73
2023/07/04 01:00:01;;;;;;;15.70;4.40;;;;;;;15.19;77.92;100916.63;5059868;28;20031;-73
2023/07/04 01:02:32;;;;;;;13.27;4.47;;;;;;;15.20;78.22;100923.69;5051837;28;20507;-71
2023/07/04 01:05:00;;;;;;;13.88;4.30;;;;;;;15.20;78.19;100920.16;5052767;28;20084;-70
2023/07/04 01:07:28;;;;;;;13.98;4.53;;;;;;;15.18;78.66;100924.78;5044996;28;20021;-72
2023/07/04 01:09:58;;;;;;;15.27;4.40;;;;;;;15.19;78.42;100922.00;5055316;28;20028;-72
2023/07/04 01:12:27;;;;;;;12.20;4.60;;;;;;;15.16;79.13;100924.03;5042218;28;20094;-71
2023/07/04 01:14:53;;;;;;;14.88;4.80;;;;;;;15.13;79.18;100918.88;5041927;28;20029;-70
2023/07/04 01:17:19;;;;;;;16.40;4.75;;;;;;;15.15;79.50;100925.84;5042821;28;20033;-73
2023/07/04 01:19:45;;;;;;;15.18;4.88;;;;;;;15.14;79.88;100925.97;5042248;28;20025;-70
2023/07/04 01:22:35;;;;;;;19.52;5.30;;;;;;;15.15;79.17;100925.00;5043332;28;20052;-72
2023/07/04 01:25:20;;;;;;;13.80;4.47;;;;;;;15.16;79.79;100926.69;5050941;28;20041;-73
2023/07/04 01:27:47;;;;;;;15.13;4.78;;;;;;;15.10;80.22;100933.34;5049618;28;20021;-71
2023/07/04 01:30:14;;;;;;;16.10;5.18;;;;;;;15.10;80.22;100927.13;5041356;28;20098;-71
2023/07/04 01:32:41;;;;;;;11.68;4.50;;;;;;;15.11;79.97;100929.69;5044138;28;20394;-72
2023/07/04 01:35:11;;;;;;;18.58;5.07;;;;;;;15.11;80.53;100931.53;5041571;28;20056;-72
2023/07/04 01:37:36;;;;;;;17.83;5.05;;;;;;;15.07;81.03;100924.66;5057075;28;20445;-71
2023/07/04 01:40:05;;;;;;;18.13;4.70;;;;;;;15.06;81.38;100931.00;5044472;28;20031;-69
2023/07/04 01:42:32;;;;;;;16.33;4.82;;;;;;;14.95;81.90;100924.53;5056148;28;20040;-71
2023/07/04 01:45:01;;;;;;;12.93;4.32;;;;;;;14.93;82.36;100941.69;5058322;28;20027;-70
2023/07/04 01:47:28;;;;;;;14.02;4.45;;;;;;;14.87;82.48;100926.84;5055546;28;20452;-72
2023/07/04 01:49:54;;;;;;;18.85;4.90;;;;;;;14.90;82.69;100926.66;5056294;28;20024;-72
2023/07/04 01:52:19;;;;;;;13.00;5.07;;;;;;;14.90;82.76;100931.16;5049512;28;20062;-71
2023/07/04 01:54:45;;;;;;;12.93;4.85;;;;;;;14.87;83.11;100928.69;5060679;28;20012;-71
2023/07/04 01:57:10;;;;;;;16.50;5.63;;;;;;;14.85;83.22;100927.94;5058073;28;20035;-71
2023/07/04 01:59:36;;;;;;;15.25;4.85;;;;;;;14.87;83.24;100923.31;5046811;28;20079;-72
2023/07/04 02:02:02;;;;;;;16.85;5.07;;;;;;;14.91;83.30;100919.47;5057514;28;20121;-70
2023/07/04 02:04:28;;;;;;;14.82;5.10;;;;;;;14.96;82.94;100925.38;5052339;28;20036;-72
2023/07/04 02:06:53;;;;;;;17.45;5.18;;;;;;;15.02;82.86;100918.75;5053943;28;20036;-72
2023/07/04 02:09:18;;;;;;;15.57;5.13;;;;;;;15.05;82.73;100922.09;5048521;28;20033;-70
2023/07/04 02:11:45;;;;;;;12.45;4.68;;;;;;;15.04;82.73;100920.34;5045248;28;20029;-72
2023/07/04 02:14:11;;;;;;;14.38;4.72;;;;;;;15.01;83.02;100917.91;5058585;28;20110;-69
2023/07/04 02:16:36;;;;;;;14.75;5.18;;;;;;;15.09;83.05;100920.03;5053934;28;20072;-74
2023/07/04 02:19:02;;;;;;;15.43;5.35;;;;;;;15.09;83.05;100925.41;5052405;28;20048;-70
2023/07/04 02:21:28;;;;;;;16.38;5.30;;;;;;;15.07;83.37;100921.97;5048002;28;20098;-71
2023/07/04 02:23:54;;;;;;;15.88;5.45;;;;;;;15.10;83.11;100922.63;5055268;28;20040;-70
2023/07/04 02:26:19;;;;;;;20.27;5.55;;;;;;;15.08;83.22;100913.81;5053866;28;20041;-71
2023/07/04 02:28:45;;;;;;;16.02;5.43;;;;;;;15.08;83.55;100912.97;5059815;28;20670;-72
2023/07/04 02:31:10;;;;;;;16.58;5.10;;;;;;;15.07;83.24;100916.63;5059161;28;20421;-71
2023/07/04 02:33:36;;;;;;;16.85;5.05;;;;;;;14.94;83.81;100909.41;5046837;28;20021;-70
2023/07/04 02:36:02;;;;;;;15.45;5.13;;;;;;;14.92;83.91;100919.38;5061076;28;20028;-72
2023/07/04 02:38:27;;;;;;;17.13;5.22;;;;;;;14.78;84.47;100914.09;5064726;28;20119;-71
2023/07/04 02:40:53;;;;;;;17.92;5.70;;;;;;;14.73;84.72;100918.06;5059968;28;20016;-70
2023/07/04 02:43:18;;;;;;;16.92;5.15;;;;;;;14.69;85.74;100912.03;5059940;28;20559;-71
2023/07/04 02:45:45;;;;;;;15.02;4.93;;;;;;;14.59;85.93;100910.91;5058516;28;20060;-73
2023/07/04 02:48:10;;;;;;;16.10;4.82;;;;;;;14.61;86.06;100912.53;5060761;28;20033;-69
2023/07/04 02:50:36;;;;;;;17.10;4.80;;;;;;;14.53;85.90;100901.47;5057765;28;20081;-73
2023/07/04 02:53:01;;;;;;;14.70;5.28;;;;;;;14.44;86.37;100902.91;5054211;28;20475;-70
2023/07/04 02:55:27;;;;;;;16.08;5.43;;;;;;;14.41;86.71;100904.94;5060495;28;20028;-73
2023/07/04 02:57:53;;;;;;;17.10;5.18;;;;;;;14.35;87.44;100903.53;5055863;28;20520;-70
2023/07/04 03:00:18;;;;;;;12.90;4.60;;;;;;;14.31;87.42;100912.72;5061017;28;20056;-72
2023/07/04 03:02:44;;;;;;;14.55;5.35;;;;;;;14.31;87.50;100906.50;5052621;28;20778;-73
2023/07/04 03:05:09;;;;;;;13.82;4.80;;;;;;;14.26;87.33;100904.13;5062246;28;20055;-71
2023/07/04 03:07:35;;;;;;;15.27;4.93;;;;;;;14.22;87.35;100915.16;5056261;28;20216;-72
2023/07/04 03:10:01;;;;;;;12.82;4.85;;;;;;;14.18;87.74;100918.00;5052920;28;20080;-72
2023/07/04 03:12:26;;;;;;;16.35;4.97;;;;;;;14.15;87.96;100920.03;5060812;28;20114;-70
2023/07/04 03:14:51;;;;;;;14.20;4.50;;;;;;;14.11;88.23;100921.19;5060546;28;20017;-72
2023/07/04 03:17:17;;;;;;;13.70;5.05;;;;;;;14.17;88.01;100923.44;5060169;28;20123;-71
2023/07/04 03:19:42;;;;;;;19.45;6.03;;;;;;;14.20;88.26;100926.78;5052236;28;20280;-70
2023/07/04 03:22:08;;;;;;;17.30;4.97;;;;;;;14.22;87.85;100920.50;5056190;28;20048;-71
2023/07/04 03:24:33;;;;;;;12.48;4.80;;;;;;;14.19;88.29;100924.22;5049021;28;20120;-71
2023/07/04 03:26:58;;;;;;;19.50;5.47;;;;;;;14.22;88.15;100923.16;5046978;28;20048;-71
2023/07/04 03:29:24;;;;;;;19.23;5.70;;;;;;;14.15;88.90;100928.91;5046483;28;20430;-72
2023/07/04 03:31:49;;;;;;;14.57;5.57;;;;;;;14.15;88.88;100928.91;5046505;28;20449;-70
2023/07/04 03:34:15;;;;;;;14.65;5.03;;;;;;;14.16;89.42;100933.28;5061206;28;20031;-71
2023/07/04 03:36:40;;;;;;;16.23;5.63;;;;;;;14.17;89.43;100927.00;5062775;28;20020;-72
2023/07/04 03:39:06;;;;;;;18.92;5.45;;;;;;;14.07;89.65;100925.00;5054984;28;20037;-70
2023/07/04 03:41:32;;;;;;;17.80;5.63;;;;;;;14.03;90.55;100936.88;5055499;28;20790;-72
2023/07/04 03:43:57;;;;;;;18.23;5.47;;;;;;;14.03;90.35;100943.06;5047541;28;20037;-74
2023/07/04 03:46:26;;;;;;;16.95;5.88;;;;;;;14.00;91.25;100937.91;5052968;28;20458;-70
2023/07/04 03:48:51;;;;;;;20.85;5.65;;;;;;;14.02;91.39;100940.50;5050008;28;20448;-72
2023/07/04 03:51:16;;;;;;;15.95;5.55;;;;;;;13.99;91.59;100946.03;5050171;28;20120;-69
2023/07/04 03:53:42;;;;;;;18.83;5.65;;;;;;;13.98;91.60;100945.19;5056592;28;20056;-70
2023/07/04 03:56:07;;;;;;;19.05;5.55;;;;;;;13.99;92.17;100946.03;5048410;28;20104;-72
2023/07/04 03:58:33;;;;;;;13.98;5.07;;;;;;;13.93;92.53;100948.16;5052691;28;20067;-71
2023/07/04 04:00:58;;;;;;;20.52;6.25;;;;;;;13.87;93.04;100937.81;5054425;28;20032;-72
2023/07/04 04:03:24;;;;;;;15.73;5.45;;;;;;;13.90;91.72;100940.31;5059821;28;20656;-69
2023/07/04 04:05:50;;;;;;;18.67;5.38;;;;;;;13.84;93.54;100943.41;5049906;28;20470;-70
2023/07/04 04:08:16;;;;;;;14.90;5.60;;;;;;;13.85;93.97;100944.25;5055881;28;20028;-70
2023/07/04 04:10:41;;;;;;;16.05;5.38;;;;;;;13.85;94.26;100937.06;5061452;28;20071;-70
2023/07/04 04:13:07;;;;;;;17.23;5.70;;;;;;;13.89;94.16;100953.81;5061347;28;20047;-72
2023/07/04 04:15:33;;;;;;;16.38;6.45;;;;;;;13.98;94.22;100963.06;5048168;28;20024;-71
2023/07/04 04:17:58;;;;;;;19.48;5.63;;;;;;;14.05;93.95;100964.41;5055961;28;20137;-71
2023/07/04 04:20:26;;;;;;;18.20;5.60;;;;;;;14.10;93.63;100949.75;5060930;28;20149;-69
2023/07/04 04:22:52;;;;;;;17.45;5.20;;;;;;;14.15;93.31;100944.97;5051102;28;20090;-72
2023/07/04 04:25:18;;;;;;;20.90;6.45;;;;;;;14.17;93.27;100944.84;5052307;28;20021;-73
2023/07/04 04:27:46;;;;;;;18.00;6.53;;;;;;;14.17;93.47;100956.44;5056982;28;20349;-70
2023/07/04 04:30:11;;;;;;;16.50;5.60;;;;;;;14.23;93.11;100960.53;5056521;28;20049;-69
2023/07/04 04:32:38;;;;;;;18.15;5.82;;;;;;;14.31;92.64;100960.91;5052900;28;20052;-72
2023/07/04 04:35:05;;;;;;;19.83;5.93;;;;;;;14.37;92.43;100965.84;5054112;28;20044;-70
2023/07/04 04:37:31;;;;;;;18.15;4.85;;;;;;;14.35;92.42;100973.13;5051772;28;20032;-71
2023/07/04 04:39:57;;;;;;;18.02;5.50;;;;;;;14.41;92.18;100970.06;5044447;28;20031;-72
2023/07/04 04:42:31;;;;;;;16.88;5.57;;;;;;;14.39;92.81;100969.31;5047628;28;20527;-69
2023/07/04 04:44:57;;;;;;;18.15;5.93;;;;;;;14.39;92.65;100979.16;5055487;28;20024;-71
2023/07/04 04:47:25;;;;;;;18.80;5.18;;;;;;;14.36;93.00;100974.00;5056411;28;20074;-71
2023/07/04 04:49:51;;;;;;;15.82;5.40;;;;;;;14.37;93.09;100986.41;5050686;28;20102;-69
2023/07/04 04:52:22;;;;;;;15.98;5.22;;;;;;;14.44;92.93;100980.56;5052747;28;20032;-73
2023/07/04 04:54:48;;;;;;;18.98;6.05;;;;;;;14.50;92.65;100982.00;5059388;28;20031;-71
2023/07/04 04:57:16;;;;;;;18.90;5.72;;;;;;;14.51;92.25;100980.22;5060322;28;20029;-71
2023/07/04 04:59:42;;;;;;;16.55;5.65;;;;;;;14.44;92.62;100977.91;5050331;28;20107;-72
2023/07/04 05:02:09;;;;;;;19.48;5.43;;;;;;;14.43;93.48;100968.16;5060970;28;20043;-70
2023/07/04 05:04:34;;;;;;;16.35;5.10;;;;;;;14.49;92.83;100979.44;5051553;28;20094;-70
2023/07/04 05:07:00;;;;;;;16.95;5.93;;;;;;;14.48;93.26;100983.06;5048287;28;20044;-72
2023/07/04 05:09:25;;;;;;;16.45;5.38;;;;;;;14.47;92.95;100992.91;5052100;28;20033;-74
2023/07/04 05:11:51;;;;;;;16.15;5.88;;;;;;;14.48;93.09;100988.41;5056227;28;20111;-72
2023/07/04 05:14:16;;;;;;;15.98;5.05;;;;;;;14.50;92.95;100990.06;5061957;28;20486;-71
2023/07/04 05:16:41;;;;;;;16.45;5.50;;;;;;;14.53;93.04;100994.38;5055447;28;20495;-71
2023/07/04 05:19:06;;;;;;;18.50;5.72;;;;;;;14.54;93.48;100993.41;5058841;28;20340;-73
2023/07/04 05:21:33;;;;;;;20.55;5.95;;;;;;;14.58;92.79;100992.25;5046859;28;20396;-72
2023/07/04 05:23:59;;;;;;;12.95;5.80;;;;;;;14.63;92.96;100992.78;5052465;28;20024;-70
2023/07/04 05:26:27;;;;;;;19.95;6.50;;;;;;;14.68;92.49;100988.00;5053859;28;20514;-70
2023/07/04 05:28:55;;;;;;;18.70;6.15;;;;;;;14.73;92.74;100988.56;5056435;28;20029;-72
2023/07/04 05:31:28;;;;;;;16.58;5.95;;;;;;;14.77;92.07;100994.59;5056354;28;20020;-70
2023/07/04 05:33:55;;;;;;;13.60;5.45;;;;;;;14.81;91.99;100988.06;5057967;28;20499;-70
2023/07/04 05:36:24;;;;;;;16.63;5.60;;;;;;;14.90;91.49;100990.13;5055699;28;20225;-73
2023/07/04 05:38:51;;;;;;;14.75;5.15;;;;;;;14.92;90.72;100996.22;5059913;28;20167;-72
2023/07/04 05:41:20;;;;;;;15.73;5.13;;;;;;;14.97;90.70;100993.28;5051891;28;20581;-70
2023/07/04 05:43:45;;;;;;;20.40;5.88;;;;;;;14.98;90.88;101003.03;5051439;28;20493;-73
2023/07/04 05:46:12;;;;;;;17.98;6.35;;;;;;;15.05;90.10;100996.25;5048686;28;20035;-73
2023/07/04 05:48:38;;;;;;;19.15;5.75;;;;;;;15.12;90.33;100994.91;5056639;28;20365;-70
2023/07/04 05:51:10;;;;;;;20.25;5.97;;;;;;;15.18;88.98;100994.50;5055088;28;20025;-70
2023/07/04 05:53:37;;;;;;;16.23;5.78;;;;;;;15.29;88.39;100988.38;5058077;28;20033;-69
2023/07/04 05:56:11;;;;;;;18.35;6.05;;;;;;;15.41;88.08;100990.22;5054803;28;20103;-72
2023/07/04 05:58:39;;;;;;;16.25;5.30;;;;;;;15.54;87.53;100993.78;5059466;28;20078;-69
2023/07/04 06:01:10;;;;;;;20.35;6.00;;;;;;;15.64;86.82;100991.34;5059075;28;20041;-71
2023/07/04 06:03:36;;;;;;;15.85;5.40;;;;;;;15.71;85.53;100989.97;5057841;28;20028;-70
2023/07/04 06:06:03;;;;;;;14.57;5.00;;;;;;;15.89;84.47;100996.75;5059862;28;20416;-71
2023/07/04 06:08:29;;;;;;;17.27;5.35;;;;;;;16.03;83.89;101000.25;5055395;28;20059;-72
2023/07/04 06:11:02;;;;;;;17.08;5.63;;;;;;;16.00;83.48;101008.53;5050769;28;20052;-70
2023/07/04 06:13:28;;;;;;;18.60;6.00;;;;;;;16.17;82.73;101000.13;5060902;28;20191;-73
2023/07/04 06:15:55;;;;;;;17.60;5.35;;;;;;;16.30;81.59;101002.78;5054399;28;20097;-73
2023/07/04 06:18:20;;;;;;;17.52;5.00;;;;;;;16.40;80.95;101018.13;5050759;28;20032;-70
2023/07/04 06:20:45;;;;;;;14.65;4.90;;;;;;;16.44;81.10;101011.56;5062122;28;20074;-72
2023/07/04 06:23:11;;;;;;;17.30;4.97;;;;;;;16.50;80.55;101007.56;5056781;28;20044;-70
2023/07/04 06:25:36;;;;;;;18.83;4.95;;;;;;;16.69;79.60;101018.69;5056210;28;20478;-69
2023/07/04 06:28:02;;;;;;;16.38;5.50;;;;;;;16.83;79.93;101027.59;5050902;28;20119;-71
2023/07/04 06:30:29;;;;;;;17.50;5.15;;;;;;;16.83;77.91;101020.38;5062671;28;20597;-72
2023/07/04 06:32:58;;;;;;;13.40;4.85;;;;;;;16.92;77.94;101027.75;5057311;28;20029;-71
2023/07/04 06:35:23;;;;;;;20.75;5.47;;;;;;;17.08;76.65;101014.03;5062439;28;20342;-73
2023/07/04 06:37:49;;;;;;;16.52;5.55;;;;;;;17.31;76.08;101011.44;5062965;28;20028;-73
2023/07/04 06:40:14;;;;;;;15.80;4.95;;;;;;;17.31;74.89;101020.38;5062680;28;20093;-72
2023/07/04 06:42:40;;;;;;;14.77;4.72;;;;;;;17.62;74.48;101018.00;5060615;28;20189;-71
2023/07/04 06:45:06;;;;;;;19.02;4.88;;;;;;;17.77;73.73;101027.63;5056763;28;20036;-71
2023/07/04 06:47:32;;;;;;;15.15;5.18;;;;;;;17.63;70.98;101034.00;5058947;28;20157;-71
2023/07/04 06:49:57;;;;;;;12.10;4.25;;;;;;;17.55;68.88;101024.81;5060477;28;20054;-70
2023/07/04 06:52:22;;;;;;;12.85;3.60;;;;;;;17.53;68.66;101029.47;5056778;28;20282;-70
2023/07/04 06:54:51;;;;;;;12.35;4.43;;;;;;;17.73;66.75;101041.41;5060812;28;20054;-71
2023/07/04 06:57:18;;;;;;;12.05;3.80;;;;;;;17.63;65.66;101044.78;5062495;28;20115;-70
2023/07/04 06:59:45;;;;;;;9.77;3.85;;;;;;;17.75;64.24;101050.22;5053742;28;20037;-70
2023/07/04 07:02:14;;;;;;;11.45;4.22;;;;;;;17.76;64.28;101043.88;5060739;28;20033;-71
2023/07/04 07:04:40;;;;;;;8.57;3.22;;;;;;;18.02;63.99;101040.00;5060377;28;20490;-70
2023/07/04 07:07:09;;;;;;;13.70;4.57;;;;;;;18.07;62.33;101045.03;5059176;28;20035;-71
2023/07/04 07:09:40;;;;;;;13.43;3.70;;;;;;;18.31;61.81;101059.25;5052119;28;20679;-70
2023/07/04 07:12:06;;;;;;;10.73;3.28;;;;;;;18.37;60.97;101047.09;5061502;28;20036;-72
2023/07/04 07:14:32;;;;;;;10.38;3.63;;;;;;;18.53;61.00;101046.72;5059795;28;20035;-70
2023/07/04 07:16:57;;;;;;;10.35;3.40;;;;;;;18.57;60.76;101050.91;5059089;28;20450;-71
2023/07/04 07:19:23;;;;;;;9.50;3.28;;;;;;;18.42;59.34;101047.59;5059876;28;20032;-69
2023/07/04 07:21:49;;;;;;;10.35;3.42;;;;;;;18.60;59.41;101047.94;5059994;28;20045;-72
2023/07/04 07:24:14;;;;;;;10.90;3.40;;;;;;;18.76;57.67;101042.19;5070847;28;20221;-70
2023/07/04 07:26:40;;;;;;;11.10;3.30;;;;;;;18.92;54.89;101056.97;5061514;28;20417;-70
2023/07/04 07:29:05;;;;;;;11.05;3.53;;;;;;;18.98;55.09;101049.34;5062841;28;20043;-72
2023/07/04 07:31:30;;;;;;;10.40;3.40;;;;;;;18.55;54.83;101055.53;5059267;28;20141;-70
2023/07/04 07:33:56;;;;;;;10.82;3.53;;;;;;;18.64;55.34;101065.56;5056141;28;20084;-71
2023/07/04 07:36:32;;;;;;;8.05;3.58;;;;;;;19.21;55.34;101067.19;5057292;28;20024;-71
2023/07/04 07:39:00;;;;;;;6.95;3.17;;;;;;;19.67;53.00;101066.03;5059661;28;20078;-70
2023/07/04 07:41:28;;;;;;;8.10;3.33;;;;;;;19.94;51.95;101067.31;5057718;28;20020;-69
2023/07/04 07:43:57;;;;;;;19.98;4.30;;;;;;;20.34;50.73;101076.34;5061973;28;20100;-70
2023/07/04 07:46:23;;;;;;;10.73;3.90;;;;;;;20.57;49.76;101062.69;5056400;28;20086;-73
2023/07/04 07:48:49;;;;;;;10.82;3.78;;;;;;;20.68;48.71;101069.81;5056436;28;20501;-71
2023/07/04 07:51:15;;;;;;;10.38;3.70;;;;;;;21.05;49.22;101060.09;5060200;28;20325;-72
2023/07/04 07:53:46;;;;;;;8.98;3.53;;;;;;;21.60;48.68;101067.66;5064863;28;20055;-71
2023/07/04 07:56:13;;;;;;;10.82;3.85;;;;;;;21.84;46.65;101057.22;5064506;28;20088;-71
2023/07/04 07:58:39;;;;;;;11.05;3.22;;;;;;;22.19;45.50;101060.31;5063402;28;20060;-72
2023/07/04 08:01:19;;;;;;;8.60;3.15;;;;;;;22.23;46.06;101067.13;5055397;28;20062;-72
2023/07/04 08:03:46;;;;;;;8.95;3.38;;;;;;;21.61;45.61;101063.97;5066484;28;20550;-70
2023/07/04 08:06:28;;;;;;;9.43;3.35;;;;;;;21.38;46.09;101071.53;5054127;28;20031;-71
2023/07/04 08:08:55;;;;;;;11.07;3.20;;;;;;;21.23;45.00;101078.31;5057061;28;20362;-72
2023/07/04 08:11:21;;;;;;;9.82;3.30;;;;;;;21.90;44.09;101061.19;5067305;28;20043;-72
2023/07/04 08:13:46;;;;;;;8.80;3.00;;;;;;;22.79;42.57;101077.88;5060593;28;20598;-72
2023/07/04 08:16:17;;;;;;;9.02;3.00;;;;;;;23.46;41.97;101086.59;5056246;28;20508;-69
2023/07/04 08:18:42;;;;;;;9.20;3.50;;;;;;;23.97;40.33;101086.84;5054622;28;20047;-70
2023/07/04 08:21:08;;;;;;;8.95;3.28;;;;;;;23.69;41.20;101084.25;5054208;28;20330;-71
2023/07/04 08:23:33;;;;;;;10.38;3.47;;;;;;;23.78;41.10;101094.19;5059052;28;20069;-72
2023/07/04 08:25:59;;;;;;;7.38;3.03;;;;;;;24.06;38.39;101075.00;5059933;28;20498;-72
2023/07/04 08:28:26;;;;;;;8.27;2.83;;;;;;;24.01;38.24;101080.09;5058804;28;20064;-69
2023/07/04 08:30:52;;;;;;;7.13;3.22;;;;;;;24.49;37.92;101093.13;5062578;28;20017;-72
2023/07/04 08:33:18;;;;;;;7.32;2.90;;;;;;;24.59;36.50;101084.88;5055617;28;20029;-72
2023/07/04 08:35:58;;;;;;;6.82;3.20;;;;;;;24.17;38.72;101093.78;5054458;28;20518;-71
2023/07/04 08:38:23;;;;;;;10.65;3.13;;;;;;;25.20;37.14;101080.97;5055279;28;20039;-72
2023/07/04 08:40:49;;;;;;;11.63;3.35;;;;;;;25.19;35.71;101078.44;5052218;28;20029;-70
2023/07/04 08:43:21;;;;;;;7.53;2.80;;;;;;;23.59;36.71;101100.63;5051361;28;20028;-72
2023/07/04 08:45:47;;;;;;;7.68;3.35;;;;;;;23.67;36.34;101080.00;5061578;28;20047;-70
2023/07/04 08:48:17;;;;;;;11.85;3.00;;;;;;;24.71;35.37;101080.00;5064710;28;20044;-70
2023/07/04 08:50:45;;;;;;;5.70;2.70;;;;;;;24.88;34.26;101072.72;5058619;28;20024;-71
2023/07/04 08:53:20;;;;;;;7.72;3.00;;;;;;;25.19;33.82;101068.38;5060302;28;20540;-70
2023/07/04 08:55:59;;;;;;;7.00;2.70;;;;;;;26.06;33.78;101076.94;5058191;28;20029;-71
2023/07/04 08:58:45;;;;;;;6.00;3.00;;;;;;;26.80;33.35;101074.84;5056804;28;20174;-70
2023/07/04 09:01:29;;;;;;;8.07;3.22;;;;;;;26.78;32.82;101093.28;5058675;28;20107;-71
2023/07/04 09:04:08;;;;;;;8.20;3.47;;;;;;;26.91;33.00;101084.50;5059950;28;20032;-71
2023/07/04 09:06:43;;;;;;;10.40;3.55;;;;;;;27.15;32.33;101087.13;5053093;28;20451;-71
2023/07/04 09:09:50;;;;;;;9.57;3.10;;;;;;;26.95;32.60;101083.13;5061606;28;20036;-68
2023/07/04 09:12:16;;;;;;;9.32;3.30;;;;;;;27.04;32.94;101092.97;5037570;28;20294;-70
2023/07/04 09:14:55;;;;;;;9.90;3.47;;;;;;;27.52;32.64;101096.44;5032328;28;20048;-70
2023/07/04 09:17:30;;;;;;;8.40;3.28;;;;;;;27.31;33.21;101089.75;5027700;28;20511;-70
2023/07/04 09:19:57;;;;;;;6.85;2.70;;;;;;;27.86;31.80;101096.00;5045794;28;20067;-69
2023/07/04 09:22:22;;;;;;;8.50;2.95;;;;;;;27.96;31.23;101087.53;5036622;28;20056;-69
2023/07/04 09:24:48;;;;;;;7.70;2.97;;;;;;;28.36;29.99;101099.13;5038894;28;20392;-70
2023/07/04 09:27:15;;;;;;;7.03;2.63;;;;;;;28.75;29.62;101098.81;5025600;28;20099;-71
2023/07/04 09:29:41;;;;;;;6.22;2.33;;;;;;;28.88;29.43;101101.72;5035082;28;20068;-70
2023/07/04 09:32:07;;;;;;;7.93;2.42;;;;;;;29.04;29.00;101117.97;5034109;28;20388;-71
2023/07/04 09:34:40;;;;;;;7.28;2.78;;;;;;;29.37;28.30;101108.44;5038816;28;20039;-70
2023/07/04 09:37:13;;;;;;;6.30;2.55;;;;;;;29.25;27.24;101108.09;5038957;28;20236;-71
2023/07/04 09:39:50;;;;;;;9.60;3.03;;;;;;;29.35;28.88;101118.75;5041749;28;20099;-71
2023/07/04 09:42:24;;;;;;;9.45;2.80;;;;;;;29.08;27.83;101120.34;5033410;28;20043;-70
2023/07/04 09:44:54;;;;;;;11.30;2.92;;;;;;;29.17;28.01;101114.53;5037522;28;20115;-70
2023/07/04 09:47:29;;;;;;;9.68;2.92;;;;;;;29.83;28.14;101114.41;5055842;28;20059;-70
2023/07/04 09:50:29;;;;;;;7.07;2.78;;;;;;;30.70;27.13;101116.72;5057520;28;20104;-71
2023/07/04 09:53:08;;;;;;;5.30;2.00;;;;;;;29.67;27.96;101125.63;5059569;28;20085;-70
2023/07/04 09:55:34;;;;;;;6.80;2.40;;;;;;;29.39;27.60;101123.66;5054919;28;20098;-75
2023/07/04 09:58:21;;;;;;;4.80;2.20;;;;;;;30.51;27.82;101118.28;5053144;28;20020;-77
2023/07/04 10:01:18;;;;;;;5.18;2.00;;;;;;;30.77;26.71;101114.03;5055565;28;20032;-74
2023/07/04 10:03:49;;;;;;;5.75;2.13;;;;;;;30.97;25.64;101127.84;5058539;28;20487;-75
2023/07/04 10:06:30;;;;;;;5.63;2.00;;;;;;;31.13;25.75;101115.66;5064667;28;20048;-76
2023/07/04 10:08:57;;;;;;;4.90;2.47;;;;;;;29.84;26.43;101135.28;5062701;28;20028;-75
2023/07/04 10:11:33;;;;;;;6.13;2.53;;;;;;;29.00;28.45;101133.09;5067513;28;20169;-76
2023/07/04 10:14:02;;;;;;;5.15;2.10;;;;;;;29.29;27.67;101129.44;5058960;28;20258;-69
2023/07/04 10:16:28;;;;;;;4.63;2.13;;;;;;;29.43;26.00;101124.09;5059254;28;20032;-69
2023/07/04 10:19:03;;;;;;;5.38;2.20;;;;;;;29.55;26.67;101136.25;5060254;28;20020;-70
2023/07/04 10:21:29;;;;;;;5.68;2.13;;;;;;;29.97;26.44;101129.06;5061389;28;20040;-68
2023/07/04 10:23:54;;;;;;;5.93;2.30;;;;;;;30.50;25.59;101122.09;5054456;28;20021;-70
2023/07/04 10:26:20;;;;;;;6.20;2.58;;;;;;;30.93;24.90;101113.66;5050256;28;20050;-69
2023/07/04 10:28:47;;;;;;;9.48;2.53;;;;;;;29.98;26.28;101117.06;5059958;28;20360;-69
2023/07/04 10:31:21;;;;;;;6.88;2.72;;;;;;;30.24;27.13;101108.19;5065530;28;20024;-69
2023/07/04 10:34:03;;;;;;;9.27;2.55;;;;;;;30.34;26.52;101111.44;5055350;28;20347;-71
2023/07/04 10:36:32;;;;;;;7.00;2.08;;;;;;;30.71;25.26;101110.16;5051579;28;20098;-72
2023/07/04 10:39:06;;;;;;;5.32;2.13;;;;;;;31.70;24.99;101117.91;5049127;28;20024;-75
2023/07/04 10:41:52;;;;;;;4.60;2.00;;;;;;;32.71;24.05;101120.38;5057789;28;20028;-74
2023/07/04 10:44:24;;;;;;;6.07;1.98;;;;;;;31.87;24.40;101123.03;5061609;28;20123;-71
2023/07/04 10:47:00;;;;;;;6.30;2.30;;;;;;;31.53;24.31;101122.13;5058333;28;20069;-75
2023/07/04 10:49:34;;;;;;;5.13;2.17;;;;;;;31.68;24.21;101128.28;5056101;28;20048;-73
2023/07/04 10:52:04;;;;;;;5.28;2.20;;;;;;;32.59;22.80;101110.25;5057048;28;20033;-74
2023/07/04 10:54:30;;;;;;;7.38;2.22;;;;;;;32.87;22.74;101112.69;5070000;28;20093;-77
2023/07/04 10:57:15;;;;;;;6.38;2.28;;;;;;;33.29;22.65;101116.75;5066777;28;20016;-71
2023/07/04 10:59:45;;;;;;;8.48;2.53;;;;;;;33.39;22.21;101133.66;5061498;28;20056;-72
2023/07/04 11:02:36;;;;;;;7.82;2.90;;;;;;;33.44;22.95;101127.47;5068349;28;20029;-72
2023/07/04 11:05:20;;;;;;;4.10;2.30;;;;;;;31.20;25.05;101136.63;5060185;28;20188;-78
2023/07/04 11:07:47;;;;;;;6.70;2.58;;;;;;;30.00;26.37;101131.41;5063241;28;20024;-73
2023/07/04 11:10:14;;;;;;;7.97;2.88;;;;;;;30.96;26.50;101129.75;5070674;28;20040;-72
2023/07/04 11:12:41;;;;;;;6.70;2.60;;;;;;;31.82;25.07;101123.66;5068721;28;20525;-72
2023/07/04 11:15:20;;;;;;;4.82;2.35;;;;;;;32.49;24.73;101116.22;5061230;28;20020;-72
2023/07/04 11:17:46;;;;;;;10.75;2.75;;;;;;;31.29;24.82;101133.72;5060958;28;20365;-77
2023/07/04 11:20:27;;;;;;;5.78;2.33;;;;;;;29.63;27.15;101124.34;5064295;28;20035;-74
2023/07/04 11:23:00;;;;;;;6.43;2.88;;;;;;;29.31;27.51;101125.69;5064842;28;20070;-72
2023/07/04 11:25:29;;;;;;;;;;;;;;;30.00;26.72;101136.91;5057912;28;20585;-71